Waukesha, WI (53146)

1:30 AM CDT on July 29, 2016 (GMT -0500)
Legend Hill | | Change Station

Elev 935 ft 42.98 °N, 88.20 °W | Updated 13 minutes ago

Overcast
Overcast
66.4 °F
Feels Like 66.4 °F
N
2.2
Wind Variable Wind from NE

Today
High -- | Low -- °F
--% Chance of Precip.
Yesterday
High -- | Low -- °F
Precip. -- in
Pressure 29.98 in
Visibility 10.0 miles
Clouds Scattered Clouds 1200 ft
Scattered Clouds 1900 ft
Overcast 8000 ft
Dew Point 63 °F
Humidity 90%
Rainfall 0.00 in
Snow Depth Not available.
5:40 AM 8:16 PM
Waning Crescent, 25% visible
METAR KUES 290615Z AUTO 05008G14KT 10SM SCT012 SCT019 OVC080 18/16 A2998 RMK AO2
Pressure 29.98 in
Visibility 10.0 miles
Clouds Scattered Clouds 1200 ft
Scattered Clouds 1900 ft
Overcast 8000 ft
Dew Point 63 °F
Humidity 90%
Rainfall 0.00 in
Snow Depth Not available.
5:40 AM 8:16 PM
Waning Crescent, 25% visible
METAR KUES 290615Z AUTO 05008G14KT 10SM SCT012 SCT019 OVC080 18/16 A2998 RMK AO2

10-Day Weather Forecast

Almanac

Astronomy

Jul. 29, 2016 Rise Set
Actual Time
Civil Twilight
Nautical Twilight
Astronomical Twilight
Moon
Length of Visible Light
Length of Day
Tomorrow will be .
, % of the Moon is Illuminated

Today's Extremes

State Highs State Lows

Community

WunderPhotos

Upload Photos

1,928,299 photos uploaded!

WunderBlog® & News

Nearby

Air Quality

  Air Quality AQ Index Pollutant
Not available.

Snow Depth

Station Depth Elevation

Earthquake Activity

City Distance Mag. Time & Date
Minimum magnitude displayed is 2.5.

Coastal Water Temperatures

Place Temperature

Stations

Nearby Weather Stations

Station Location Temp. Windchill Dew Point Humidity Wind Precip. Elev Updated Type
                   

Watches & Warnings

There are currently no watches in effect.